Time;durP1;ratioP1;P1;durP2;ratioP2;P2;SDS_P1;SDS_P2;PMS_P1;PMS_P2;Temp;Humidity;BMP_temperature;BMP_pressure;BME280_temperature;BME280_humidity;BME280_pressure;Samples;Min_cycle;Max_cycle;Signal;HPM_P1;HPM_P2
2022/04/22 00:02:11;;;;;;;0.50;0.50;;;8.90;59.50;;;7.94;44.33;94027.25;5061605;28;20198;-87
2022/04/22 00:04:38;;;;;;;0.55;0.55;;;8.90;59.80;;;7.95;44.09;94029.66;5045259;28;20230;-87
2022/04/22 00:07:06;;;;;;;0.73;0.73;;;8.80;59.70;;;7.84;44.23;94015.38;5061192;28;20204;-87
2022/04/22 00:09:33;;;;;;;0.70;0.70;;;8.80;59.70;;;7.87;44.35;94013.38;5077843;28;20207;-87
2022/04/22 00:12:00;;;;;;;0.50;0.50;;;8.80;59.80;;;7.86;44.29;94023.03;5077790;28;20206;-87
2022/04/22 00:14:27;;;;;;;0.50;0.50;;;8.70;59.80;;;7.84;44.02;94011.97;5059982;28;20727;-87
2022/04/22 00:16:54;;;;;;;0.50;0.50;;;8.70;59.90;;;7.80;44.53;94014.19;5045130;28;20206;-87
2022/04/22 00:19:22;;;;;;;0.60;0.60;;;8.80;60.10;;;7.75;44.79;94000.91;5041749;28;20221;-88
2022/04/22 00:21:49;;;;;;;0.70;0.70;;;8.70;60.10;;;7.77;44.86;94006.72;5074973;28;20218;-88
2022/04/22 00:24:16;;;;;;;0.60;0.60;;;8.70;60.20;;;7.69;44.79;93986.84;5093160;28;20253;-88
2022/04/22 00:26:43;;;;;;;0.60;0.60;;;8.60;60.30;;;7.64;45.02;93986.63;5061797;28;20293;-88
2022/04/22 00:29:11;;;;;;;0.60;0.60;;;8.60;60.30;;;7.71;44.76;94001.50;5078426;28;20770;-88
2022/04/22 00:31:39;;;;;;;0.60;0.60;;;8.60;60.30;;;7.60;44.65;93992.44;5057753;28;20206;-88
2022/04/22 00:34:06;;;;;;;0.57;0.57;;;8.60;60.50;;;7.63;44.88;94000.66;5057819;28;20272;-88
2022/04/22 00:36:33;;;;;;;0.60;0.60;;;8.50;60.40;;;7.60;44.77;93995.81;5024732;28;20630;-88
2022/04/22 00:39:01;;;;;;;0.60;0.60;;;8.50;60.50;;;7.57;45.10;93991.00;5042666;28;20250;-88
2022/04/22 00:41:29;;;;;;;0.60;0.60;;;8.50;60.50;;;7.37;44.89;93964.84;5060712;28;20195;-88
2022/04/22 00:43:57;;;;;;;0.55;0.55;;;8.50;60.50;;;7.50;45.15;93985.75;5060862;28;20198;-88
2022/04/22 00:46:24;;;;;;;0.60;0.60;;;8.40;60.60;;;7.48;45.51;93984.34;5044646;28;20271;-88
2022/04/22 00:48:52;;;;;;;0.70;0.70;;;8.40;60.70;;;7.30;45.82;93954.41;5077602;28;20245;-88
2022/04/22 00:51:21;;;;;;;0.50;0.50;;;8.40;60.90;;;7.46;45.54;93983.75;5044395;28;20194;-88
2022/04/22 00:53:51;;;;;;;0.60;0.60;;;8.40;60.90;;;7.44;45.49;93980.53;5061245;28;20240;-88
2022/04/22 00:56:19;;;;;;;0.60;0.60;;;8.40;61.20;;;7.36;45.83;93965.84;5079837;28;20326;-87
2022/04/22 00:58:50;;;;;;;0.50;0.50;;;8.30;61.10;;;7.45;46.27;93982.16;5080670;28;20288;-87
2022/04/22 01:01:17;;;;;;;0.70;0.70;;;8.40;61.40;;;7.31;46.34;93956.00;5051520;28;20221;-88
2022/04/22 01:12:06;;;;;;;0.60;0.60;;;8.30;61.40;;;7.32;45.96;93965.44;5089562;28;20650;-87
2022/04/22 01:14:34;;;;;;;0.60;0.60;;;8.30;61.40;;;7.32;46.07;93960.22;5057716;28;20210;-88
2022/04/22 01:17:02;;;;;;;0.60;0.60;;;8.20;61.30;;;7.13;46.07;93927.03;5060493;28;20562;-88
2022/04/22 01:19:30;;;;;;;0.70;0.70;;;8.20;61.50;;;7.15;46.39;93933.69;5060179;28;20677;-88
2022/04/22 01:21:57;;;;;;;0.80;0.80;;;8.20;61.50;;;7.29;46.52;93952.00;5059847;28;20205;-88
2022/04/22 01:24:25;;;;;;;0.70;0.70;;;8.20;61.50;;;7.14;46.57;93933.84;5060608;28;20296;-87
2022/04/22 01:26:55;;;;;;;0.80;0.80;;;8.20;61.70;;;7.25;46.37;93940.31;5044085;28;20206;-87
2022/04/22 01:29:22;;;;;;;0.60;0.60;;;8.10;61.90;;;7.25;46.23;93935.94;5072674;28;20222;-87
2022/04/22 01:31:50;;;;;;;0.70;0.70;;;8.10;61.70;;;7.23;46.09;93932.69;5080481;28;20194;-88
2022/04/22 01:34:17;;;;;;;0.60;0.60;;;8.10;61.70;;;7.21;46.60;93932.06;5064903;28;20214;-87
2022/04/22 01:36:44;;;;;;;0.70;0.70;;;8.10;61.80;;;7.12;46.89;93921.03;5076430;28;20202;-87
2022/04/22 01:39:11;;;;;;;0.60;0.60;;;8.10;62.00;;;7.19;47.45;93928.88;5059271;28;20214;-88
2022/04/22 01:41:38;;;;;;;0.70;0.70;;;8.10;62.00;;;7.17;46.88;93923.06;5059196;28;20236;-88
2022/04/22 01:44:05;;;;;;;0.60;0.60;;;8.00;62.00;;;7.16;47.15;93924.84;5060221;28;20468;-88
2022/04/22 01:46:32;;;;;;;0.60;0.60;;;8.10;62.20;;;7.15;46.79;93925.03;5073105;28;20260;-88
2022/04/22 01:49:00;;;;;;;0.60;0.60;;;8.00;62.10;;;6.99;47.25;93894.91;5063306;28;20293;-88
2022/04/22 01:51:27;;;;;;;0.50;0.50;;;8.00;62.20;;;6.99;47.24;93894.91;5039731;28;20298;-87
2022/04/22 01:53:54;;;;;;;0.70;0.70;;;8.00;62.30;;;7.09;47.19;93910.19;5039210;28;20223;-88
2022/04/22 01:56:21;;;;;;;0.68;0.68;;;8.00;62.20;;;6.92;47.50;93873.22;5043725;28;20664;-87
2022/04/22 01:58:49;;;;;;;0.60;0.60;;;7.90;62.20;;;7.05;47.33;93891.50;5059337;28;20194;-88
2022/04/22 02:01:16;;;;;;;0.70;0.70;;;7.90;62.20;;;6.89;47.34;93880.41;5059392;28;20210;-88
2022/04/22 02:03:43;;;;;;;0.60;0.60;;;7.90;62.40;;;6.91;47.66;93882.84;5074688;28;20202;-88
2022/04/22 02:06:10;;;;;;;0.60;0.60;;;7.90;62.40;;;6.99;47.41;93894.91;5063095;28;20221;-88
2022/04/22 02:08:38;;;;;;;0.70;0.70;;;7.90;62.40;;;6.96;47.40;93890.09;5059819;28;20205;-87
2022/04/22 02:11:05;;;;;;;0.70;0.70;;;7.90;62.50;;;6.89;47.77;93887.44;5059341;28;20232;-88
2022/04/22 02:13:39;;;;;;;0.60;0.60;;;7.90;62.50;;;6.90;47.21;93896.88;5059159;28;20193;-87
2022/04/22 02:16:07;;;;;;;0.60;0.60;;;7.80;62.50;;;6.86;47.41;93887.81;5059654;28;20204;-88
2022/04/22 02:18:39;;;;;;;0.70;0.70;;;7.80;62.50;;;6.75;47.53;93873.56;5042563;28;20197;-88
2022/04/22 02:21:09;;;;;;;0.50;0.50;;;7.80;62.60;;;6.79;47.74;93884.41;5078056;28;20651;-87
2022/04/22 02:23:36;;;;;;;0.60;0.60;;;7.70;62.70;;;6.77;47.75;93886.38;5079264;28;20198;-88
2022/04/22 02:26:04;;;;;;;0.70;0.70;;;7.80;62.70;;;6.68;47.50;93885.75;5062571;28;20230;-88
2022/04/22 02:28:31;;;;;;;0.50;0.50;;;7.70;62.60;;;6.54;47.73;93867.44;5055964;28;20199;-87
2022/04/22 02:31:10;;;;;;;0.60;0.60;;;7.70;62.60;;;6.68;47.70;93889.16;5071499;28;20233;-88
2022/04/22 02:33:41;;;;;;;0.60;0.60;;;7.70;63.50;;;6.49;47.72;93867.19;5055514;28;20202;-87
2022/04/22 02:36:10;;;;;;;0.70;0.70;;;7.60;62.80;;;6.60;47.64;93880.69;5042267;28;20200;-88
2022/04/22 02:38:37;;;;;;;0.60;0.60;;;7.60;62.70;;;6.49;47.93;93861.97;5079894;28;20225;-88
2022/04/22 02:46:37;;;;;;;0.60;0.60;;;7.50;62.70;;;6.52;48.23;93882.44;5078309;28;20234;-88
2022/04/22 02:49:05;;;;;;;0.60;0.60;;;7.50;62.70;;;6.43;47.92;93864.56;5079838;28;20225;-87
2022/04/22 02:51:32;;;;;;;0.70;0.70;;;7.40;62.70;;;6.50;47.91;93865.41;5078796;28;20562;-86
2022/04/22 02:54:00;;;;;;;0.60;0.60;;;7.40;62.80;;;6.48;47.64;93864.78;5062550;28;20198;-87
2022/04/22 02:56:29;;;;;;;0.60;0.60;;;7.40;62.90;;;6.45;48.41;93859.97;5061343;28;20206;-88
2022/04/22 02:58:57;;;;;;;0.60;0.60;;;7.40;63.00;;;6.30;48.35;93834.03;5044794;28;20264;-87
2022/04/22 03:01:24;;;;;;;0.70;0.70;;;7.40;63.20;;;6.48;48.22;93859.56;5056182;28;20199;-88
2022/04/22 03:03:51;;;;;;;0.60;0.60;;;7.40;63.20;;;6.47;48.65;93861.38;5075801;28;20222;-87
2022/04/22 03:06:19;;;;;;;0.68;0.68;;;7.40;63.20;;;6.44;48.51;93850.56;5074634;28;20222;-87
2022/04/22 03:08:46;;;;;;;0.80;0.80;;;7.40;63.20;;;6.45;48.54;93855.56;5045485;28;20199;-87
2022/04/22 03:11:21;;;;;;;0.63;0.63;;;7.30;63.30;;;6.48;48.20;93855.19;5089970;28;20633;-87
2022/04/22 03:13:49;;;;;;;0.60;0.60;;;7.40;63.40;;;6.48;48.19;93856.97;5064218;28;20213;-87
2022/04/22 03:16:20;;;;;;;0.80;0.80;;;7.30;63.40;;;6.48;48.59;93847.38;5045676;28;20198;-86
2022/04/22 03:18:47;;;;;;;0.80;0.80;;;7.40;63.70;;;6.49;48.38;93843.75;5079151;28;20217;-87
2022/04/22 03:21:14;;;;;;;0.70;0.70;;;7.30;63.40;;;6.50;48.49;93836.75;5057880;28;20198;-88
2022/04/22 03:23:41;;;;;;;0.60;0.60;;;7.30;63.50;;;6.49;48.41;93838.53;5045750;28;20191;-87
2022/04/22 03:26:08;;;;;;;0.60;0.60;;;7.30;63.60;;;6.50;48.57;93839.34;5061689;28;20267;-87
2022/04/22 03:28:36;;;;;;;0.70;0.70;;;7.30;63.60;;;6.45;48.57;93826.91;5047425;28;20264;-88
2022/04/22 03:31:03;;;;;;;0.70;0.70;;;7.30;63.50;;;6.46;48.52;93827.69;5058619;28;20222;-88
2022/04/22 03:33:30;;;;;;;0.70;0.70;;;7.30;63.50;;;6.36;48.73;93810.66;5058894;28;20227;-88
2022/04/22 03:35:58;;;;;;;0.70;0.70;;;7.30;63.60;;;6.46;48.44;93822.50;5045192;28;20218;-88
2022/04/22 03:38:27;;;;;;;0.60;0.60;;;7.30;63.50;;;6.45;48.58;93823.50;5061077;28;20276;-88
2022/04/22 03:40:54;;;;;;;0.60;0.60;;;7.30;63.60;;;6.45;48.67;93826.91;5057257;28;20219;-88
2022/04/22 03:43:24;;;;;;;0.60;0.60;;;7.30;63.60;;;6.40;48.85;93821.47;5040388;28;20199;-87
2022/04/22 03:45:51;;;;;;;0.60;0.60;;;7.30;63.70;;;6.40;48.79;93819.66;5053593;28;20237;-86
2022/04/22 03:48:18;;;;;;;0.60;0.60;;;7.30;63.70;;;6.39;48.88;93822.47;5059147;28;20648;-86
2022/04/22 03:50:45;;;;;;;0.50;0.50;;;7.30;63.80;;;6.41;48.73;93825.69;5040262;28;20288;-86
2022/04/22 03:53:12;;;;;;;0.60;0.60;;;7.30;63.80;;;6.40;49.00;93826.69;5040185;28;20282;-86
2022/04/22 03:55:41;;;;;;;0.60;0.60;;;7.30;63.80;;;6.38;49.03;93824.28;5070567;28;20206;-86
2022/04/22 03:58:12;;;;;;;0.70;0.70;;;7.20;63.80;;;6.35;48.74;93821.25;5061625;28;20239;-86
2022/04/22 04:00:51;;;;;;;0.70;0.70;;;7.20;63.80;;;6.36;49.11;93820.25;5077088;28;20718;-86
2022/04/22 04:03:26;;;;;;;0.70;0.70;;;7.20;64.30;;;6.17;49.01;93793.13;5061025;28;20241;-87
2022/04/22 04:05:53;;;;;;;0.60;0.60;;;7.20;63.90;;;6.33;48.73;93818.03;5061740;28;20324;-86
2022/04/22 04:08:22;;;;;;;0.60;0.60;;;7.20;63.70;;;6.31;48.91;93820.84;5058914;28;20203;-86
2022/04/22 04:16:23;;;;;;;0.70;0.70;;;7.20;63.90;;;6.25;48.88;93819.78;5062656;28;20293;-86
2022/04/22 04:18:51;;;;;;;0.80;0.80;;;7.20;64.00;;;6.37;49.34;93816.66;5059278;28;20190;-86
2022/04/22 04:24:05;;;;;;;0.60;0.60;;;7.20;64.30;;;6.51;49.17;93815.72;5059743;28;20660;-86
2022/04/22 04:26:33;;;;;;;0.50;0.50;;;7.20;64.50;;;6.55;49.80;93805.72;5057406;28;20306;-85
2022/04/22 04:29:00;;;;;;;0.55;0.55;;;7.20;64.50;;;6.65;49.61;93806.16;5059988;28;20210;-85
2022/04/22 04:31:28;;;;;;;0.73;0.73;;;7.30;64.60;;;6.72;49.28;93806.97;5073679;28;20214;-86
2022/04/22 04:33:56;;;;;;;0.60;0.60;;;7.30;64.60;;;6.83;49.73;93813.41;5061328;28;20202;-86
2022/04/22 04:36:23;;;;;;;0.70;0.70;;;7.40;64.70;;;6.94;49.59;93816.47;5054406;28;20671;-86
2022/04/22 04:38:50;;;;;;;0.60;0.60;;;7.50;64.80;;;6.95;49.61;93803.25;5076718;28;20278;-85
2022/04/22 04:41:18;;;;;;;0.57;0.57;;;7.50;64.90;;;7.14;49.52;93809.50;5060404;28;20203;-86
2022/04/22 04:43:45;;;;;;;0.60;0.60;;;7.60;65.00;;;7.26;49.49;93816.75;5060586;28;20209;-86
2022/04/22 04:46:12;;;;;;;0.60;0.60;;;7.70;65.10;;;7.35;49.37;93808.53;5056293;28;20298;-86
2022/04/22 04:48:39;;;;;;;0.70;0.70;;;7.80;65.10;;;7.47;49.44;93805.31;5040719;28;20657;-86
2022/04/22 04:51:07;;;;;;;0.50;0.50;;;7.80;65.00;;;7.51;49.30;93796.13;5040652;28;20281;-86
2022/04/22 04:53:34;;;;;;;0.60;0.60;;;7.90;65.10;;;7.64;49.41;93810.94;5040732;28;20246;-87
2022/04/22 04:56:01;;;;;;;0.60;0.60;;;8.00;65.10;;;7.74;49.35;93810.53;5039269;28;20212;-86
2022/04/22 04:58:28;;;;;;;0.70;0.70;;;8.10;65.20;;;7.81;49.52;93813.97;5042541;28;20199;-86
2022/04/22 05:00:56;;;;;;;0.70;0.70;;;8.20;65.20;;;7.88;49.75;93819.97;5067936;28;20727;-85
2022/04/22 05:03:23;;;;;;;0.50;0.50;;;8.20;65.20;;;7.98;49.05;93820.41;5060667;28;20634;-85
2022/04/22 05:05:51;;;;;;;0.50;0.50;;;8.30;65.30;;;8.09;49.44;93807.72;5058443;28;20321;-86
2022/04/22 05:08:18;;;;;;;0.50;0.50;;;8.40;65.30;;;8.13;49.42;93807.09;5072564;28;20710;-87
2022/04/22 05:10:47;;;;;;;0.60;0.60;;;8.50;65.30;;;8.24;49.76;93808.28;5074386;28;20210;-88
2022/04/22 05:13:15;;;;;;;0.60;0.60;;;8.60;65.20;;;8.25;49.49;93789.00;5046650;28;20199;-86
2022/04/22 05:15:43;;;;;;;0.70;0.70;;;8.60;65.20;;;8.38;49.24;93805.66;5058660;28;20211;-86
2022/04/22 05:18:10;;;;;;;0.60;0.60;;;8.70;65.10;;;8.50;49.30;93824.94;5059696;28;20221;-86
2022/04/22 05:20:41;;;;;;;0.50;0.50;;;8.80;65.10;;;8.48;49.40;93803.41;5062781;28;20229;-85
2022/04/22 05:23:08;;;;;;;0.70;0.70;;;8.90;65.10;;;8.53;49.13;93800.19;5067024;28;20221;-85
2022/04/22 05:25:35;;;;;;;0.70;0.70;;;8.90;65.00;;;8.51;49.13;93784.72;5072152;28;20294;-86
2022/04/22 05:28:06;;;;;;;0.60;0.60;;;9.00;65.00;;;8.75;48.68;93812.00;5058315;28;20648;-86
2022/04/22 05:33:30;;;;;;;0.60;0.60;;;9.20;65.10;;;8.86;48.89;93791.41;5057588;28;20229;-85
2022/04/22 05:36:00;;;;;;;0.70;0.70;;;9.20;64.90;;;8.93;49.12;93797.41;5066333;28;20218;-85
2022/04/22 05:38:27;;;;;;;0.60;0.60;;;9.30;65.30;;;8.95;49.19;93793.56;5058174;28;20260;-86
2022/04/22 05:40:54;;;;;;;0.50;0.50;;;9.30;65.00;;;9.02;49.17;93790.13;5063693;28;20672;-85
2022/04/22 05:43:22;;;;;;;0.60;0.60;;;9.40;65.00;;;9.16;49.06;93804.75;5049979;28;20198;-86
2022/04/22 05:45:49;;;;;;;0.70;0.70;;;9.40;64.90;;;9.21;49.04;93798.88;5074290;28;20287;-85
2022/04/22 05:48:17;;;;;;;0.50;0.50;;;9.50;64.90;;;9.13;49.17;93777.19;5074713;28;20202;-86
2022/04/22 05:50:44;;;;;;;0.60;0.60;;;9.60;65.00;;;9.26;48.96;93775.50;5057338;28;20229;-86
2022/04/22 05:53:11;;;;;;;0.50;0.50;;;9.60;65.00;;;9.38;48.87;93789.50;5057702;28;20203;-87
2022/04/22 05:55:38;;;;;;;0.50;0.50;;;9.70;65.00;;;9.45;48.94;93790.25;5048924;28;20211;-86
2022/04/22 05:58:05;;;;;;;0.70;0.70;;;9.70;65.00;;;9.51;48.67;93785.19;5066423;28;20193;-86
2022/04/22 06:00:32;;;;;;;0.50;0.50;;;9.80;65.00;;;9.59;48.84;93784.91;5036137;28;20267;-86
2022/04/22 06:03:00;;;;;;;0.50;0.50;;;9.80;65.00;;;9.64;49.12;93774.59;5066590;28;20230;-86
2022/04/22 06:05:27;;;;;;;0.70;0.70;;;9.90;65.10;;;9.78;48.88;93777.94;5057202;28;20218;-86
2022/04/22 06:10:41;;;;;;;0.50;0.50;;;10.10;63.70;;;9.90;48.61;93773.59;5048717;28;20221;-86
2022/04/22 06:13:08;;;;;;;0.60;0.60;;;10.10;63.60;;;10.05;48.80;93785.56;5072261;28;20326;-86
2022/04/22 06:15:35;;;;;;;0.60;0.60;;;10.20;63.60;;;10.10;48.71;93776.00;5070181;28;20650;-87
2022/04/22 06:18:03;;;;;;;0.70;0.70;;;10.30;63.60;;;10.18;48.39;93777.56;5057678;28;20189;-85
2022/04/22 06:20:30;;;;;;;0.57;0.57;;;10.30;63.50;;;10.27;48.70;93780.69;5040657;28;20214;-85
2022/04/22 06:22:58;;;;;;;0.60;0.60;;;10.40;63.60;;;10.33;48.67;93771.97;5055996;28;20248;-84
2022/04/22 06:25:26;;;;;;;0.80;0.80;;;10.50;63.60;;;10.36;48.58;93763.69;5072277;28;20210;-84
2022/04/22 06:27:53;;;;;;;0.60;0.60;;;10.60;63.50;;;10.37;48.46;93751.38;5072214;28;20210;-84
2022/04/22 06:30:22;;;;;;;0.60;0.60;;;10.70;63.40;;;10.47;48.20;93758.72;5064232;28;20457;-84
2022/04/22 06:32:52;;;;;;;0.60;0.60;;;10.70;63.40;;;10.64;48.23;93774.66;5056909;28;20198;-84
2022/04/22 06:35:23;;;;;;;0.60;0.60;;;10.80;63.40;;;10.69;47.96;93766.94;5040847;28;20218;-84
2022/04/22 06:37:52;;;;;;;0.60;0.60;;;10.90;63.40;;;10.66;47.47;93749.81;5041034;28;20601;-85
2022/04/22 06:45:54;;;;;;;0.60;0.60;;;11.10;63.20;;;10.95;48.01;93783.34;5059438;28;20209;-84
2022/04/22 06:48:32;;;;;;;0.60;0.60;;;11.10;63.10;;;10.93;47.92;93777.56;5065818;28;20210;-85
2022/04/22 06:51:20;;;;;;;0.60;0.60;;;11.20;63.10;;;10.99;47.92;93777.44;5088052;28;20247;-85
2022/04/22 06:53:48;;;;;;;0.60;0.60;;;11.20;63.00;;;11.06;47.71;93782.63;5057112;28;20189;-83
2022/04/22 06:56:15;;;;;;;0.60;0.60;;;11.30;63.10;;;11.17;47.63;93781.06;5054196;28;20190;-85
2022/04/22 06:58:43;;;;;;;0.60;0.60;;;11.30;63.00;;;11.23;47.83;93774.94;5056471;28;20201;-85
2022/04/22 07:01:10;;;;;;;0.60;0.60;;;11.40;63.00;;;11.30;47.43;93778.25;5065610;28;20198;-84
2022/04/22 07:03:58;;;;;;;0.60;0.60;;;11.40;62.90;;;11.34;47.35;93786.50;5060131;28;20188;-84
2022/04/22 07:06:25;;;;;;;0.50;0.50;;;11.50;62.80;;;11.36;47.26;93785.22;5057194;28;20225;-84
2022/04/22 07:08:53;;;;;;;0.50;0.50;;;11.60;62.70;;;11.37;46.91;93791.28;5062593;28;20560;-84
2022/04/22 07:11:28;;;;;;;0.70;0.70;;;11.60;62.70;;;11.33;47.23;93785.66;5048571;28;20206;-85
2022/04/22 07:13:59;;;;;;;0.60;0.60;;;11.60;62.60;;;11.30;47.22;93790.56;5054121;28;20201;-84
2022/04/22 07:16:27;;;;;;;0.60;0.60;;;11.60;62.50;;;11.26;47.31;93789.44;5056445;28;20685;-84
2022/04/22 07:18:57;;;;;;;0.60;0.60;;;11.60;62.40;;;11.24;47.41;93786.22;5076980;28;20696;-84
2022/04/22 07:21:26;;;;;;;0.65;0.65;;;11.60;62.50;;;11.17;47.34;93786.31;5047391;28;20212;-84
2022/04/22 07:23:55;;;;;;;0.55;0.55;;;11.60;62.40;;;11.00;47.22;93762.53;5039129;28;20688;-84
2022/04/22 07:26:24;;;;;;;0.70;0.70;;;11.60;62.40;;;11.14;47.19;93789.38;5048585;28;20225;-84
2022/04/22 07:28:53;;;;;;;0.70;0.70;;;11.60;63.30;;;11.12;47.39;93789.59;5055976;28;20221;-83
2022/04/22 07:31:20;;;;;;;0.60;0.60;;;11.50;62.30;;;11.16;47.39;93787.34;5072544;28;20664;-85
2022/04/22 07:33:52;;;;;;;0.60;0.60;;;11.50;62.50;;;11.19;47.58;93792.94;5049026;28;20194;-85
2022/04/22 07:36:19;;;;;;;0.57;0.57;;;11.50;62.50;;;11.23;47.52;93790.69;5052588;28;20187;-84
2022/04/22 07:38:47;;;;;;;0.60;0.60;;;11.60;62.50;;;11.21;47.33;93779.59;5060829;28;20194;-84
2022/04/22 07:41:18;;;;;;;0.60;0.60;;;11.60;62.50;;;11.28;47.36;93789.97;5060368;28;20220;-83
2022/04/22 07:46:47;;;;;;;0.50;0.50;;;11.60;62.50;;;11.32;47.32;93788.53;5077485;28;20287;-83
2022/04/22 07:49:15;;;;;;;0.60;0.60;;;11.60;62.40;;;11.30;47.20;93786.13;5059596;28;20267;-85
2022/04/22 07:51:44;;;;;;;0.60;0.60;;;11.60;62.30;;;11.40;47.07;93800.53;5080127;28;20190;-84
2022/04/22 07:54:14;;;;;;;0.52;0.52;;;11.60;62.30;;;11.40;47.00;93798.72;5081272;28;20213;-84
2022/04/22 07:56:42;;;;;;;0.60;0.60;;;11.70;62.30;;;11.26;46.83;93773.69;5071726;28;20214;-84
2022/04/22 07:59:12;;;;;;;0.60;0.60;;;11.70;62.20;;;11.28;46.78;93777.66;5055306;28;20214;-84
2022/04/22 08:01:39;;;;;;;0.70;0.70;;;11.70;62.10;;;11.43;46.85;93794.84;5089278;28;20268;-85
2022/04/22 08:04:10;;;;;;;0.60;0.60;;;11.70;62.10;;;11.43;46.81;93797.47;5049715;28;20210;-85
2022/04/22 08:06:38;;;;;;;0.50;0.50;;;11.70;62.10;;;11.45;46.72;93801.47;5060801;28;20263;-85
2022/04/22 08:09:05;;;;;;;0.60;0.60;;;11.70;62.00;;;11.49;46.79;93799.19;5071916;28;20288;-84
2022/04/22 08:11:32;;;;;;;0.60;0.60;;;11.80;62.10;;;11.52;46.75;93796.91;5051795;28;20194;-84
2022/04/22 08:13:59;;;;;;;0.60;0.60;;;11.80;62.10;;;11.40;46.57;93772.47;5068199;28;20182;-85
2022/04/22 08:16:26;;;;;;;0.50;0.50;;;11.80;62.10;;;11.58;46.95;93799.66;5065970;28;20186;-84
2022/04/22 08:18:54;;;;;;;0.52;0.52;;;11.80;62.10;;;11.60;46.67;93795.78;5077316;28;20243;-85
2022/04/22 08:21:32;;;;;;;0.50;0.50;;;11.80;63.00;;;11.67;46.69;93800.94;5085301;28;20197;-84
2022/04/22 08:24:04;;;;;;;0.57;0.57;;;11.90;62.20;;;11.77;46.50;93801.19;5068340;28;20610;-85
2022/04/22 08:26:32;;;;;;;0.55;0.55;;;11.90;62.20;;;11.81;46.59;93788.38;5086037;28;20638;-85
2022/04/22 08:29:00;;;;;;;0.60;0.60;;;12.00;62.20;;;11.90;46.52;93794.91;5068519;28;20198;-84
2022/04/22 08:31:27;;;;;;;0.50;0.50;;;12.00;62.10;;;11.97;46.39;93794.81;5052431;28;20198;-85
2022/04/22 08:33:57;;;;;;;0.70;0.70;;;12.10;62.10;;;11.94;46.32;93782.91;5075929;28;20252;-84
2022/04/22 08:36:28;;;;;;;0.50;0.50;;;12.20;61.90;;;12.04;46.23;93790.25;5068677;28;20196;-84
2022/04/22 08:38:59;;;;;;;0.60;0.60;;;12.20;61.90;;;12.08;45.69;93796.66;5056062;28;20878;-84
2022/04/22 08:41:27;;;;;;;0.60;0.60;;;12.20;61.70;;;12.08;45.81;93790.59;5076053;28;20206;-84
2022/04/22 08:43:58;;;;;;;0.50;0.50;;;12.30;61.60;;;12.09;45.71;93790.38;5066106;28;20217;-85
2022/04/22 08:52:00;;;;;;;0.60;0.60;;;12.40;61.60;;;12.15;45.76;93784.19;5075175;28;20538;-85
2022/04/22 08:54:30;;;;;;;0.60;0.60;;;12.40;61.70;;;12.29;45.86;93795.28;5058832;28;20218;-85
2022/04/22 08:56:57;;;;;;;0.70;0.70;;;12.40;61.60;;;12.33;45.75;93796.41;5060273;28;20190;-85
2022/04/22 08:59:26;;;;;;;0.60;0.60;;;12.50;61.70;;;12.45;45.66;93791.16;5060053;28;20312;-85
2022/04/22 09:01:56;;;;;;;0.40;0.40;;;12.50;61.70;;;12.52;45.77;93798.13;5042505;28;20578;-83
2022/04/22 09:04:26;;;;;;;0.50;0.50;;;12.60;61.60;;;12.55;45.29;93789.75;5058870;28;20757;-84
2022/04/22 09:06:54;;;;;;;0.60;0.60;;;12.60;61.50;;;12.54;45.26;93778.44;5060524;28;20214;-84
2022/04/22 09:09:21;;;;;;;0.60;0.60;;;12.70;61.50;;;12.57;45.25;93779.81;5060204;28;20564;-84
2022/04/22 09:11:48;;;;;;;0.57;0.57;;;12.80;61.50;;;12.73;45.34;93804.59;5058664;28;20364;-85
2022/04/22 09:14:19;;;;;;;0.60;0.60;;;12.80;61.40;;;12.79;45.23;93798.41;5041785;28;20335;-84
2022/04/22 09:16:48;;;;;;;0.50;0.50;;;12.80;61.30;;;12.86;45.21;93787.75;5060084;28;20639;-85
2022/04/22 09:19:18;;;;;;;0.60;0.60;;;12.90;61.40;;;12.85;45.05;93773.00;5043737;28;20261;-85
2022/04/22 09:21:56;;;;;;;0.55;0.55;;;12.90;61.40;;;13.02;45.20;93781.72;5043716;28;20190;-84
2022/04/22 09:24:23;;;;;;;0.50;0.50;;;13.00;61.30;;;13.11;45.08;93777.69;5058653;28;20267;-84
2022/04/22 09:27:08;;;;;;;0.50;0.50;;;13.10;61.50;;;13.24;44.96;93774.00;5058624;28;20217;-85
2022/04/22 09:29:54;;;;;;;0.60;0.60;;;13.20;61.40;;;13.38;44.73;93782.41;5068973;28;20210;-84
2022/04/22 09:32:27;;;;;;;0.50;0.50;;;13.30;61.50;;;13.52;44.80;93763.69;5075895;28;20294;-85
2022/04/22 09:35:20;;;;;;;0.60;0.60;;;13.40;61.50;;;13.64;44.68;93777.56;5065621;28;20221;-84
2022/04/22 09:43:45;;;;;;;0.70;0.70;;;13.70;61.40;;;13.93;44.50;93775.66;5075487;28;20245;-84
2022/04/22 09:46:32;;;;;;;0.70;0.70;;;13.80;61.20;;;13.97;44.40;93768.06;5076671;28;20190;-84
2022/04/22 09:49:00;;;;;;;0.40;0.40;;;13.90;61.20;;;14.09;44.33;93775.91;5059954;28;20209;-84
2022/04/22 09:51:32;;;;;;;0.60;0.60;;;14.00;61.10;;;14.11;43.98;93773.81;5072011;28;20232;-85
2022/04/22 09:54:10;;;;;;;0.50;0.50;;;14.00;61.10;;;14.17;44.06;93772.03;5034989;28;20205;-84
2022/04/22 09:56:38;;;;;;;0.40;0.40;;;14.10;60.90;;;14.17;43.83;93772.84;5042194;28;20190;-85
2022/04/22 09:59:26;;;;;;;0.50;0.50;;;14.10;60.80;;;14.13;43.88;93766.44;5057157;28;20214;-85
2022/04/22 10:01:53;;;;;;;0.57;0.57;;;14.20;60.70;;;14.09;43.77;93774.03;5058879;28;20210;-83
2022/04/22 10:04:30;;;;;;;0.60;0.60;;;14.20;60.70;;;13.99;44.16;93763.34;5074756;28;20225;-84
2022/04/22 10:07:01;;;;;;;0.50;0.50;;;14.10;60.50;;;13.99;44.38;93760.72;5059133;28;20614;-84
2022/04/22 10:09:29;;;;;;;0.50;0.50;;;14.10;60.70;;;13.99;44.09;93775.72;5075732;28;20215;-84
2022/04/22 10:11:58;;;;;;;0.60;0.60;;;14.10;60.70;;;13.98;44.23;93766.25;5058086;28;20206;-83
2022/04/22 10:14:39;;;;;;;0.57;0.57;;;14.10;60.70;;;13.95;44.42;93766.72;5069949;28;20211;-84
2022/04/22 10:17:06;;;;;;;0.60;0.60;;;14.10;60.90;;;13.77;44.28;93740.38;5074343;28;20205;-84
2022/04/22 10:19:34;;;;;;;0.50;0.50;;;14.10;61.10;;;13.83;44.26;93764.16;5055514;28;20217;-84
2022/04/22 10:22:05;;;;;;;0.55;0.55;;;14.00;60.60;;;13.63;44.37;93754.09;5066609;28;20713;-84
2022/04/22 10:24:32;;;;;;;0.50;0.50;;;14.00;60.70;;;13.67;44.51;93758.66;5058105;28;20217;-84
2022/04/22 10:27:04;;;;;;;0.60;0.60;;;14.00;60.90;;;13.67;44.85;93774.47;5041626;28;20615;-83
2022/04/22 10:29:36;;;;;;;0.70;0.70;;;14.00;61.10;;;13.49;45.05;93748.34;5072458;28;20235;-84
2022/04/22 10:32:06;;;;;;;0.50;0.50;;;13.90;61.30;;;13.60;45.21;93765.94;5058553;28;20205;-83
2022/04/22 10:34:41;;;;;;;0.60;0.60;;;13.90;61.40;;;13.57;45.70;93767.22;5074390;28;20210;-84
2022/04/22 10:37:28;;;;;;;0.50;0.50;;;13.80;61.70;;;13.55;45.54;93779.00;5041268;28;20743;-85
2022/04/22 10:39:57;;;;;;;0.60;0.60;;;13.80;61.70;;;13.55;45.74;93765.81;5066891;28;20222;-85
2022/04/22 10:42:34;;;;;;;0.52;0.52;;;13.80;61.70;;;13.51;45.99;93773.44;5071522;28;20371;-84
2022/04/22 10:47:55;;;;;;;0.60;0.60;;;13.80;62.00;;;13.36;46.51;93763.38;5067904;28;20752;-84
2022/04/22 10:50:34;;;;;;;0.50;0.50;;;13.80;62.10;;;13.35;46.27;93768.91;5071994;28;20206;-84
2022/04/22 10:53:08;;;;;;;0.60;0.60;;;13.70;62.20;;;13.29;47.05;93762.72;5055073;28;20187;-84
2022/04/22 10:55:44;;;;;;;0.55;0.55;;;13.60;62.40;;;13.28;46.65;93774.28;5072164;28;20503;-85
2022/04/22 10:58:31;;;;;;;0.50;0.50;;;13.70;63.00;;;13.27;46.97;93775.34;5073334;28;20192;-84
2022/04/22 11:00:58;;;;;;;0.50;0.50;;;13.60;62.80;;;13.20;47.17;93769.44;5056968;28;20214;-85
2022/04/22 11:03:34;;;;;;;0.50;0.50;;;13.60;62.90;;;13.09;47.51;93761.34;5057294;28;20723;-84
2022/04/22 11:06:06;;;;;;;0.50;0.50;;;13.60;63.50;;;13.19;47.72;93781.78;5065748;28;20213;-84
2022/04/22 11:08:38;;;;;;;0.50;0.50;;;13.60;63.20;;;13.12;47.87;93779.31;5041467;28;20250;-84
2022/04/22 11:11:18;;;;;;;0.50;0.50;;;13.50;63.10;;;12.97;47.92;93765.84;5075727;28;20209;-85
2022/04/22 11:13:51;;;;;;;0.40;0.40;;;13.50;63.40;;;13.07;48.18;93781.84;5053567;28;20190;-85
2022/04/22 11:16:39;;;;;;;0.50;0.50;;;13.50;63.70;;;13.03;48.31;93780.69;5052469;28;20263;-85
2022/04/22 11:19:13;;;;;;;0.60;0.60;;;13.40;63.80;;;13.00;48.42;93785.63;5086279;28;20300;-85
2022/04/22 11:21:41;;;;;;;0.50;0.50;;;13.40;63.80;;;12.86;48.34;93775.38;5055510;28;20198;-84
2022/04/22 11:24:18;;;;;;;0.50;0.50;;;13.40;63.70;;;12.90;48.38;93787.06;5036017;28;20214;-85
2022/04/22 11:26:46;;;;;;;0.50;0.50;;;13.30;63.80;;;12.80;48.64;93784.22;5056748;28;20191;-86
2022/04/22 11:29:15;;;;;;;0.60;0.60;;;13.30;63.80;;;12.83;49.11;93794.28;5075400;28;20221;-85